Time;durP1;ratioP1;P1;durP2;ratioP2;P2;SDS_P1;SDS_P2;PMS_P1;PMS_P2;Temp;Humidity;BMP_temperature;BMP_pressure;BME280_temperature;BME280_humidity;BME280_pressure;Samples;Min_cycle;Max_cycle;Signal;HPM_P1;HPM_P2
2023/08/21 00:00:50;;;;;;;0.00;0.00;;;;;;;;;;1722889;28;20240;-83
2023/08/21 00:01:42;;;;;;;0.00;0.00;;;;;;;;;;1726925;28;20211;-84
2023/08/21 00:02:33;;;;;;;0.00;0.00;;;;;;;;;;1729216;28;20251;-84
2023/08/21 00:03:25;;;;;;;0.00;0.00;;;;;;;;;;1729221;28;20220;-83
2023/08/21 00:04:17;;;;;;;0.00;0.00;;;;;;;;;;1726744;28;20299;-84
2023/08/21 00:05:09;;;;;;;0.00;0.00;;;;;;;;;;1726523;28;20236;-84
2023/08/21 00:06:00;;;;;;;0.00;0.00;;;;;;;;;;1726812;28;20247;-84
2023/08/21 00:06:52;;;;;;;0.00;0.00;;;;;;;;;;1726708;28;20249;-82
2023/08/21 00:07:43;;;;;;;0.00;0.00;;;;;;;;;;1729032;28;20331;-83
2023/08/21 00:08:34;;;;;;;0.00;0.00;;;;;;;;;;1728719;28;20200;-83
2023/08/21 00:09:26;;;;;;;0.00;0.00;;;;;;;;;;1727506;28;20267;-83
2023/08/21 00:10:17;;;;;;;0.00;0.00;;;;;;;;;;1727577;28;20235;-85
2023/08/21 00:11:08;;;;;;;0.00;0.00;;;;;;;;;;1726696;28;20192;-84
2023/08/21 00:12:00;;;;;;;0.00;0.00;;;;;;;;;;1726639;28;20346;-84
2023/08/21 00:12:51;;;;;;;0.00;0.00;;;;;;;;;;1730713;28;20598;-84
2023/08/21 00:13:44;;;;;;;0.00;0.00;;;;;;;;;;1728356;28;20551;-84
2023/08/21 00:14:35;;;;;;;0.00;0.00;;;;;;;;;;1726680;28;20558;-84
2023/08/21 00:15:28;;;;;;;0.00;0.00;;;;;;;;;;1728101;28;20208;-84
2023/08/21 00:16:20;;;;;;;0.00;0.00;;;;;;;;;;1727439;28;20339;-82
2023/08/21 00:17:11;;;;;;;0.00;0.00;;;;;;;;;;1727818;28;20204;-83
2023/08/21 00:18:02;;;;;;;0.00;0.00;;;;;;;;;;1726912;28;20887;-83
2023/08/21 00:18:54;;;;;;;0.00;0.00;;;;;;;;;;1727755;28;20207;-83
2023/08/21 00:19:45;;;;;;;0.00;0.00;;;;;;;;;;1727596;28;20685;-83
2023/08/21 00:20:37;;;;;;;0.00;0.00;;;;;;;;;;1725942;28;20322;-85
2023/08/21 00:21:28;;;;;;;0.00;0.00;;;;;;;;;;1726609;28;20298;-84
2023/08/21 00:22:20;;;;;;;0.00;0.00;;;;;;;;;;1726919;28;20614;-84
2023/08/21 00:23:12;;;;;;;0.00;0.00;;;;;;;;;;1726249;28;20235;-84
2023/08/21 00:24:03;;;;;;;0.00;0.00;;;;;;;;;;1729155;28;20645;-84
2023/08/21 00:24:55;;;;;;;0.00;0.00;;;;;;;;;;1730325;28;20279;-84
2023/08/21 00:25:46;;;;;;;0.00;0.00;;;;;;;;;;1727711;28;20299;-84
2023/08/21 00:26:37;;;;;;;0.00;0.00;;;;;;;;;;1727213;28;20208;-84
2023/08/21 00:27:29;;;;;;;0.00;0.00;;;;;;;;;;1726937;28;20208;-84
2023/08/21 00:28:20;;;;;;;0.00;0.00;;;;;;;;;;1727544;28;20270;-83
2023/08/21 00:29:11;;;;;;;0.00;0.00;;;;;;;;;;1725953;28;20204;-83
2023/08/21 00:30:04;;;;;;;0.00;0.00;;;;;;;;;;1728028;28;20192;-83
2023/08/21 00:31:01;;;;;;;0.00;0.00;;;;;;;;;;1728063;28;20256;-83
2023/08/21 00:31:53;;;;;;;0.00;0.00;;;;;;;;;;1728790;28;20200;-83
2023/08/21 00:32:45;;;;;;;0.00;0.00;;;;;;;;;;1724673;28;20239;-83
2023/08/21 00:33:37;;;;;;;0.00;0.00;;;;;;;;;;1728431;28;20243;-83
2023/08/21 00:34:29;;;;;;;0.00;0.00;;;;;;;;;;1727327;28;20676;-83
2023/08/21 00:35:20;;;;;;;0.00;0.00;;;;;;;;;;1727805;28;20721;-83
2023/08/21 00:36:12;;;;;;;0.00;0.00;;;;;;;;;;1727778;28;20232;-83
2023/08/21 00:37:03;;;;;;;0.00;0.00;;;;;;;;;;1729339;28;20246;-83
2023/08/21 00:37:54;;;;;;;0.00;0.00;;;;;;;;;;1732688;28;20584;-83
2023/08/21 00:38:47;;;;;;;0.00;0.00;;;;;;;;;;1728975;28;20207;-83
2023/08/21 00:39:38;;;;;;;0.00;0.00;;;;;;;;;;1733513;28;20207;-83
2023/08/21 00:40:31;;;;;;;0.00;0.00;;;;;;;;;;1729545;28;20531;-83
2023/08/21 00:41:23;;;;;;;0.00;0.00;;;;;;;;;;1730335;28;20207;-83
2023/08/21 00:42:14;;;;;;;0.00;0.00;;;;;;;;;;1728455;28;20297;-83
2023/08/21 00:43:05;;;;;;;0.00;0.00;;;;;;;;;;1732467;28;20242;-81
2023/08/21 00:43:57;;;;;;;0.00;0.00;;;;;;;;;;1728931;28;20294;-81
2023/08/21 00:44:48;;;;;;;0.00;0.00;;;;;;;;;;1722908;28;20324;-81
2023/08/21 00:45:42;;;;;;;0.00;0.00;;;;;;;;;;1728105;28;20311;-82
2023/08/21 00:46:35;;;;;;;0.00;0.00;;;;;;;;;;1727926;28;20310;-82
2023/08/21 00:47:26;;;;;;;0.00;0.00;;;;;;;;;;1729045;28;20208;-82
2023/08/21 00:48:19;;;;;;;0.00;0.00;;;;;;;;;;1730484;28;20228;-82
2023/08/21 00:49:10;;;;;;;0.00;0.00;;;;;;;;;;1729741;28;20211;-82
2023/08/21 00:50:04;;;;;;;0.00;0.00;;;;;;;;;;1727999;28;20318;-81
2023/08/21 00:50:55;;;;;;;0.00;0.00;;;;;;;;;;1729436;28;20246;-82
2023/08/21 00:51:48;;;;;;;0.00;0.00;;;;;;;;;;1727570;28;20294;-81
2023/08/21 00:52:40;;;;;;;0.00;0.00;;;;;;;;;;1728155;28;20722;-81
2023/08/21 00:53:31;;;;;;;0.00;0.00;;;;;;;;;;1727963;28;20200;-81
2023/08/21 00:54:23;;;;;;;0.00;0.00;;;;;;;;;;1734444;28;20203;-81
2023/08/21 00:55:14;;;;;;;0.00;0.00;;;;;;;;;;1736386;28;20235;-81
2023/08/21 00:56:07;;;;;;;0.00;0.00;;;;;;;;;;1733660;28;20322;-82
2023/08/21 00:56:58;;;;;;;0.00;0.00;;;;;;;;;;1736021;28;20592;-82
2023/08/21 00:57:49;;;;;;;0.00;0.00;;;;;;;;;;1739529;28;20229;-83
2023/08/21 00:58:41;;;;;;;0.00;0.00;;;;;;;;;;1734072;28;20208;-82
2023/08/21 00:59:32;;;;;;;0.00;0.00;;;;;;;;;;1739664;28;20695;-82
2023/08/21 01:00:24;;;;;;;0.00;0.00;;;;;;;;;;1734371;28;20198;-82
2023/08/21 01:01:18;;;;;;;0.00;0.00;;;;;;;;;;1735643;28;20206;-83
2023/08/21 01:02:11;;;;;;;0.00;0.00;;;;;;;;;;1734730;28;20544;-82
2023/08/21 01:03:02;;;;;;;0.00;0.00;;;;;;;;;;1739735;28;20213;-82
2023/08/21 01:03:54;;;;;;;0.00;0.00;;;;;;;;;;1736677;28;20210;-82
2023/08/21 01:04:45;;;;;;;0.00;0.00;;;;;;;;;;1734670;28;20250;-82
2023/08/21 01:05:38;;;;;;;0.00;0.00;;;;;;;;;;1733684;28;20241;-82
2023/08/21 01:06:29;;;;;;;0.00;0.00;;;;;;;;;;1736346;28;20243;-83
2023/08/21 01:07:20;;;;;;;0.00;0.00;;;;;;;;;;1736615;28;20212;-83
2023/08/21 01:08:15;;;;;;;0.00;0.00;;;;;;;;;;1738881;28;20637;-82
2023/08/21 01:09:09;;;;;;;0.00;0.00;;;;;;;;;;1736260;28;20472;-82
2023/08/21 01:10:05;;;;;;;0.00;0.00;;;;;;;;;;1734302;28;20227;-83
2023/08/21 01:10:57;;;;;;;0.00;0.00;;;;;;;;;;1735848;28;20710;-83
2023/08/21 01:11:52;;;;;;;0.00;0.00;;;;;;;;;;1735179;28;20286;-83
2023/08/21 01:12:46;;;;;;;0.00;0.00;;;;;;;;;;1734811;28;20200;-83
2023/08/21 01:13:46;;;;;;;0.00;0.00;;;;;;;;;;1734584;28;20654;-83
2023/08/21 01:14:42;;;;;;;0.00;0.00;;;;;;;;;;1734577;28;20203;-83
2023/08/21 01:15:34;;;;;;;0.00;0.00;;;;;;;;;;1734657;28;20236;-83
2023/08/21 01:16:26;;;;;;;0.00;0.00;;;;;;;;;;1734366;28;20227;-83
2023/08/21 01:17:19;;;;;;;0.00;0.00;;;;;;;;;;1734240;28;20665;-83
2023/08/21 01:18:12;;;;;;;0.00;0.00;;;;;;;;;;1738634;28;20214;-83
2023/08/21 01:19:04;;;;;;;0.00;0.00;;;;;;;;;;1735585;28;20221;-83
2023/08/21 01:19:56;;;;;;;0.00;0.00;;;;;;;;;;1734365;28;20254;-83
2023/08/21 01:20:48;;;;;;;0.00;0.00;;;;;;;;;;1739167;28;20235;-85
2023/08/21 01:21:40;;;;;;;0.00;0.00;;;;;;;;;;1735806;28;20202;-85
2023/08/21 01:22:36;;;;;;;0.00;0.00;;;;;;;;;;1735131;28;20255;-85
2023/08/21 01:23:36;;;;;;;0.00;0.00;;;;;;;;;;1735220;28;20299;-85
2023/08/21 01:24:27;;;;;;;0.00;0.00;;;;;;;;;;1737831;28;20592;-86
2023/08/21 01:25:19;;;;;;;0.00;0.00;;;;;;;;;;1736779;28;20208;-84
2023/08/21 01:26:10;;;;;;;0.00;0.00;;;;;;;;;;1734113;28;20235;-84
2023/08/21 01:27:02;;;;;;;0.00;0.00;;;;;;;;;;1735643;28;20212;-84
2023/08/21 01:27:54;;;;;;;0.00;0.00;;;;;;;;;;1734985;28;20215;-84
2023/08/21 01:28:46;;;;;;;0.00;0.00;;;;;;;;;;1736524;28;20265;-84
2023/08/21 01:29:37;;;;;;;0.00;0.00;;;;;;;;;;1734697;28;20653;-84
2023/08/21 01:30:30;;;;;;;0.00;0.00;;;;;;;;;;1733962;28;20492;-84
2023/08/21 01:31:25;;;;;;;0.00;0.00;;;;;;;;;;1735146;28;20533;-87
2023/08/21 01:32:21;;;;;;;0.00;0.00;;;;;;;;;;1732784;28;20204;-83
2023/08/21 01:33:13;;;;;;;0.00;0.00;;;;;;;;;;1730044;28;20204;-82
2023/08/21 01:34:06;;;;;;;0.00;0.00;;;;;;;;;;1734590;28;20199;-83
2023/08/21 01:34:57;;;;;;;0.00;0.00;;;;;;;;;;1734172;28;20548;-82
2023/08/21 01:35:48;;;;;;;0.00;0.00;;;;;;;;;;1734614;28;20251;-82
2023/08/21 01:36:41;;;;;;;0.00;0.00;;;;;;;;;;1734896;28;20599;-83
2023/08/21 01:37:32;;;;;;;0.00;0.00;;;;;;;;;;1734894;28;20616;-84
2023/08/21 01:38:25;;;;;;;0.00;0.00;;;;;;;;;;1734516;28;20204;-86
2023/08/21 01:39:17;;;;;;;0.00;0.00;;;;;;;;;;1734754;28;20228;-82
2023/08/21 01:40:09;;;;;;;0.00;0.00;;;;;;;;;;1735360;28;20218;-82
2023/08/21 01:41:01;;;;;;;0.00;0.00;;;;;;;;;;1732925;28;20247;-82
2023/08/21 01:41:52;;;;;;;0.00;0.00;;;;;;;;;;1736395;28;20692;-82
2023/08/21 01:42:44;;;;;;;0.00;0.00;;;;;;;;;;1734813;28;20239;-83
2023/08/21 01:43:35;;;;;;;0.00;0.00;;;;;;;;;;1734638;28;20672;-83
2023/08/21 01:44:28;;;;;;;0.00;0.00;;;;;;;;;;1734517;28;20231;-83
2023/08/21 01:45:19;;;;;;;0.00;0.00;;;;;;;;;;1733391;28;20253;-83
2023/08/21 01:46:10;;;;;;;0.00;0.00;;;;;;;;;;1734421;28;20233;-83
2023/08/21 01:47:02;;;;;;;0.00;0.00;;;;;;;;;;1734538;28;20605;-83
2023/08/21 01:47:53;;;;;;;0.00;0.00;;;;;;;;;;1734976;28;20747;-82
2023/08/21 01:48:44;;;;;;;0.00;0.00;;;;;;;;;;1735674;28;20212;-81
2023/08/21 01:49:36;;;;;;;0.00;0.00;;;;;;;;;;1734085;28;20285;-81
2023/08/21 01:50:28;;;;;;;0.00;0.00;;;;;;;;;;1733251;28;20306;-82
2023/08/21 01:51:20;;;;;;;0.00;0.00;;;;;;;;;;1736418;28;20204;-83
2023/08/21 01:52:11;;;;;;;0.00;0.00;;;;;;;;;;1735306;28;20212;-83
2023/08/21 01:53:02;;;;;;;0.00;0.00;;;;;;;;;;1737594;28;20256;-83
2023/08/21 01:53:54;;;;;;;0.00;0.00;;;;;;;;;;1736429;28;20239;-84
2023/08/21 01:54:48;;;;;;;0.00;0.00;;;;;;;;;;1734196;28;20654;-84
2023/08/21 01:55:39;;;;;;;0.00;0.00;;;;;;;;;;1734888;28;20580;-82
2023/08/21 01:56:31;;;;;;;0.00;0.00;;;;;;;;;;1733607;28;20199;-83
2023/08/21 01:57:22;;;;;;;0.00;0.00;;;;;;;;;;1735091;28;20380;-83
2023/08/21 01:58:14;;;;;;;0.00;0.00;;;;;;;;;;1733814;28;20204;-83
2023/08/21 01:59:06;;;;;;;0.00;0.00;;;;;;;;;;1733798;28;20215;-83
2023/08/21 01:59:57;;;;;;;0.00;0.00;;;;;;;;;;1733714;28;20221;-83
2023/08/21 02:00:49;;;;;;;0.00;0.00;;;;;;;;;;1731879;28;20648;-83
2023/08/21 02:01:40;;;;;;;0.00;0.00;;;;;;;;;;1734498;28;20496;-83
2023/08/21 02:02:32;;;;;;;0.00;0.00;;;;;;;;;;1732323;28;20234;-83
2023/08/21 02:03:26;;;;;;;0.00;0.00;;;;;;;;;;1733571;28;20652;-83
2023/08/21 02:04:17;;;;;;;0.00;0.00;;;;;;;;;;1733293;28;20239;-83
2023/08/21 02:05:08;;;;;;;0.00;0.00;;;;;;;;;;1735032;28;20203;-83
2023/08/21 02:06:00;;;;;;;0.00;0.00;;;;;;;;;;1732564;28;20231;-83
2023/08/21 02:06:51;;;;;;;0.00;0.00;;;;;;;;;;1735455;28;20215;-83
2023/08/21 02:07:43;;;;;;;0.00;0.00;;;;;;;;;;1733874;28;20565;-83
2023/08/21 02:08:35;;;;;;;0.00;0.00;;;;;;;;;;1735093;28;20207;-83
2023/08/21 02:09:26;;;;;;;0.00;0.00;;;;;;;;;;1733676;28;20250;-83
2023/08/21 02:10:18;;;;;;;0.00;0.00;;;;;;;;;;1735268;28;20315;-83
2023/08/21 02:11:10;;;;;;;0.00;0.00;;;;;;;;;;1735532;28;20239;-83
2023/08/21 02:12:01;;;;;;;0.00;0.00;;;;;;;;;;1733946;28;20855;-83
2023/08/21 02:12:54;;;;;;;0.00;0.00;;;;;;;;;;1734471;28;20223;-83
2023/08/21 02:13:45;;;;;;;0.00;0.00;;;;;;;;;;1734035;28;20718;-83
2023/08/21 02:14:37;;;;;;;0.00;0.00;;;;;;;;;;1733786;28;20204;-83
2023/08/21 02:15:28;;;;;;;0.00;0.00;;;;;;;;;;1734301;28;20203;-83
2023/08/21 02:16:21;;;;;;;0.00;0.00;;;;;;;;;;1736241;28;20222;-83
2023/08/21 02:17:12;;;;;;;0.00;0.00;;;;;;;;;;1734860;28;20626;-83
2023/08/21 02:18:03;;;;;;;0.00;0.00;;;;;;;;;;1738697;28;20202;-82
2023/08/21 02:18:56;;;;;;;0.00;0.00;;;;;;;;;;1734240;28;20283;-82
2023/08/21 02:19:47;;;;;;;0.00;0.00;;;;;;;;;;1729063;28;20200;-83
2023/08/21 02:20:38;;;;;;;0.00;0.00;;;;;;;;;;1735073;28;20274;-83
2023/08/21 02:21:30;;;;;;;0.00;0.00;;;;;;;;;;1733997;28;20297;-83
2023/08/21 02:22:21;;;;;;;0.00;0.00;;;;;;;;;;1733639;28;20246;-83
2023/08/21 02:23:12;;;;;;;0.00;0.00;;;;;;;;;;1734226;28;21505;-83
2023/08/21 02:24:05;;;;;;;0.00;0.00;;;;;;;;;;1733368;28;20286;-83
2023/08/21 02:24:56;;;;;;;0.00;0.00;;;;;;;;;;1733992;28;20195;-83
2023/08/21 02:25:49;;;;;;;0.00;0.00;;;;;;;;;;1732963;28;20810;-83
2023/08/21 02:26:42;;;;;;;0.00;0.00;;;;;;;;;;1734383;28;20200;-83
2023/08/21 02:27:33;;;;;;;0.00;0.00;;;;;;;;;;1734960;28;20218;-83
2023/08/21 02:28:24;;;;;;;0.00;0.00;;;;;;;;;;1734218;28;20537;-83
2023/08/21 02:29:16;;;;;;;0.00;0.00;;;;;;;;;;1734643;28;20207;-83
2023/08/21 02:30:07;;;;;;;0.00;0.00;;;;;;;;;;1735124;28;20298;-82
2023/08/21 02:30:59;;;;;;;0.00;0.00;;;;;;;;;;1732792;28;20641;-82
2023/08/21 02:31:50;;;;;;;0.00;0.00;;;;;;;;;;1735191;28;20777;-82
2023/08/21 02:32:42;;;;;;;0.00;0.00;;;;;;;;;;1734345;28;20229;-82
2023/08/21 02:33:34;;;;;;;0.00;0.00;;;;;;;;;;1733124;28;20757;-82
2023/08/21 02:34:25;;;;;;;0.00;0.00;;;;;;;;;;1730112;28;20244;-82
2023/08/21 02:35:16;;;;;;;0.00;0.00;;;;;;;;;;1732523;28;20239;-82
2023/08/21 02:36:08;;;;;;;0.00;0.00;;;;;;;;;;1734893;28;20234;-82
2023/08/21 02:36:59;;;;;;;0.00;0.00;;;;;;;;;;1735069;28;20203;-81
2023/08/21 02:37:50;;;;;;;0.00;0.00;;;;;;;;;;1738815;28;20199;-81
2023/08/21 02:38:42;;;;;;;0.00;0.00;;;;;;;;;;1734818;28;20210;-81
2023/08/21 02:39:33;;;;;;;0.00;0.00;;;;;;;;;;1734107;28;20617;-82
2023/08/21 02:40:25;;;;;;;0.00;0.00;;;;;;;;;;1733104;28;20588;-82
2023/08/21 02:41:18;;;;;;;0.00;0.00;;;;;;;;;;1733950;28;20964;-82
2023/08/21 02:42:10;;;;;;;0.00;0.00;;;;;;;;;;1736041;28;20505;-82
2023/08/21 02:43:01;;;;;;;0.00;0.00;;;;;;;;;;1739001;28;20691;-82
2023/08/21 02:43:52;;;;;;;0.00;0.00;;;;;;;;;;1734601;28;20338;-82
2023/08/21 02:44:44;;;;;;;0.00;0.00;;;;;;;;;;1733535;28;20319;-82
2023/08/21 02:45:35;;;;;;;0.00;0.00;;;;;;;;;;1732642;28;20441;-82
2023/08/21 02:46:27;;;;;;;0.00;0.00;;;;;;;;;;1736611;28;20200;-83
2023/08/21 02:47:18;;;;;;;0.00;0.00;;;;;;;;;;1733719;28;20204;-82
2023/08/21 02:48:09;;;;;;;0.00;0.00;;;;;;;;;;1734055;28;20697;-82
2023/08/21 02:49:01;;;;;;;0.00;0.00;;;;;;;;;;1733267;28;20196;-82
2023/08/21 02:49:52;;;;;;;0.00;0.00;;;;;;;;;;1734318;28;20199;-81
2023/08/21 02:50:43;;;;;;;0.00;0.00;;;;;;;;;;1732230;28;20297;-82
2023/08/21 02:51:35;;;;;;;0.00;0.00;;;;;;;;;;1734236;28;20211;-82
2023/08/21 02:52:26;;;;;;;0.00;0.00;;;;;;;;;;1735552;28;20230;-83
2023/08/21 02:53:18;;;;;;;0.00;0.00;;;;;;;;;;1737464;28;20239;-82
2023/08/21 02:54:10;;;;;;;0.00;0.00;;;;;;;;;;1728534;28;20291;-82
2023/08/21 02:55:05;;;;;;;0.00;0.00;;;;;;;;;;1726700;28;20208;-82
2023/08/21 02:55:56;;;;;;;0.00;0.00;;;;;;;;;;1726683;28;20248;-82
2023/08/21 02:56:49;;;;;;;0.00;0.00;;;;;;;;;;1728548;28;20200;-82
2023/08/21 02:57:41;;;;;;;0.00;0.00;;;;;;;;;;1731126;28;20230;-82
2023/08/21 02:58:32;;;;;;;0.00;0.00;;;;;;;;;;1729752;28;20336;-81
2023/08/21 02:59:25;;;;;;;0.00;0.00;;;;;;;;;;1727073;28;20201;-81
2023/08/21 03:00:16;;;;;;;0.00;0.00;;;;;;;;;;1726695;28;20300;-82
2023/08/21 03:01:08;;;;;;;0.00;0.00;;;;;;;;;;1726212;28;20239;-82
2023/08/21 03:01:59;;;;;;;0.00;0.00;;;;;;;;;;1728438;28;20300;-82
2023/08/21 03:02:51;;;;;;;0.00;0.00;;;;;;;;;;1730132;28;20199;-82
2023/08/21 03:03:42;;;;;;;0.00;0.00;;;;;;;;;;1728344;28;20717;-84
2023/08/21 03:04:33;;;;;;;0.00;0.00;;;;;;;;;;1727531;28;20232;-83
2023/08/21 03:05:25;;;;;;;0.00;0.00;;;;;;;;;;1726331;28;20812;-83
2023/08/21 03:06:16;;;;;;;0.00;0.00;;;;;;;;;;1727296;28;20243;-83
2023/08/21 03:07:07;;;;;;;0.00;0.00;;;;;;;;;;1727874;28;20229;-83
2023/08/21 03:07:59;;;;;;;0.00;0.00;;;;;;;;;;1731906;28;20273;-83
2023/08/21 03:08:50;;;;;;;0.00;0.00;;;;;;;;;;1731226;28;20204;-83
2023/08/21 03:09:43;;;;;;;0.00;0.00;;;;;;;;;;1728140;28;20215;-83
2023/08/21 03:10:34;;;;;;;0.00;0.00;;;;;;;;;;1728045;28;22276;-83
2023/08/21 03:11:25;;;;;;;0.00;0.00;;;;;;;;;;1730606;28;20196;-83
2023/08/21 03:12:18;;;;;;;0.00;0.00;;;;;;;;;;1728997;28;20543;-83
2023/08/21 03:13:09;;;;;;;0.00;0.00;;;;;;;;;;1727549;28;20250;-83
2023/08/21 03:14:01;;;;;;;0.00;0.00;;;;;;;;;;1729052;28;20482;-83
2023/08/21 03:14:53;;;;;;;0.00;0.00;;;;;;;;;;1727115;28;20626;-83
2023/08/21 03:15:45;;;;;;;0.00;0.00;;;;;;;;;;1727945;28;20232;-83
2023/08/21 03:16:36;;;;;;;0.00;0.00;;;;;;;;;;1729280;28;20247;-81
2023/08/21 03:17:27;;;;;;;0.00;0.00;;;;;;;;;;1729669;28;20283;-81
2023/08/21 03:18:19;;;;;;;0.00;0.00;;;;;;;;;;1730372;28;20232;-81
2023/08/21 03:19:10;;;;;;;0.00;0.00;;;;;;;;;;1728536;28;20352;-81
2023/08/21 03:20:05;;;;;;;0.00;0.00;;;;;;;;;;1726683;28;20295;-83
2023/08/21 03:20:56;;;;;;;0.00;0.00;;;;;;;;;;1729308;28;20236;-84
2023/08/21 03:21:47;;;;;;;0.00;0.00;;;;;;;;;;1728010;28;20208;-84
2023/08/21 03:22:39;;;;;;;0.00;0.00;;;;;;;;;;1727578;28;20214;-84
2023/08/21 03:23:30;;;;;;;0.00;0.00;;;;;;;;;;1728167;28;20650;-84
2023/08/21 03:24:21;;;;;;;0.00;0.00;;;;;;;;;;1727411;28;20296;-83
2023/08/21 03:25:13;;;;;;;0.00;0.00;;;;;;;;;;1728988;28;20508;-83
2023/08/21 03:26:04;;;;;;;0.00;0.00;;;;;;;;;;1725474;28;20695;-83
2023/08/21 03:26:56;;;;;;;0.00;0.00;;;;;;;;;;1728829;28;20235;-83
2023/08/21 03:27:49;;;;;;;0.00;0.00;;;;;;;;;;1730870;28;20200;-83
2023/08/21 03:28:40;;;;;;;0.00;0.00;;;;;;;;;;1728560;28;20281;-83
2023/08/21 03:29:33;;;;;;;0.00;0.00;;;;;;;;;;1727181;28;20200;-83
2023/08/21 03:30:24;;;;;;;0.00;0.00;;;;;;;;;;1727806;28;20785;-83
2023/08/21 03:31:15;;;;;;;0.00;0.00;;;;;;;;;;1727449;28;20231;-83
2023/08/21 03:32:07;;;;;;;0.00;0.00;;;;;;;;;;1728717;28;20530;-83
2023/08/21 03:32:58;;;;;;;0.00;0.00;;;;;;;;;;1732137;28;20254;-82
2023/08/21 03:33:50;;;;;;;0.00;0.00;;;;;;;;;;1728446;28;20239;-81
2023/08/21 03:34:41;;;;;;;0.00;0.00;;;;;;;;;;1726359;28;20270;-82
2023/08/21 03:35:33;;;;;;;0.00;0.00;;;;;;;;;;1728460;28;20210;-82
2023/08/21 03:36:30;;;;;;;0.00;0.00;;;;;;;;;;1730362;28;20244;-82
2023/08/21 03:37:22;;;;;;;0.00;0.00;;;;;;;;;;1730238;28;20196;-82
2023/08/21 03:38:13;;;;;;;0.00;0.00;;;;;;;;;;1731377;28;20227;-82
2023/08/21 03:39:06;;;;;;;0.00;0.00;;;;;;;;;;1729376;28;20539;-83
2023/08/21 03:39:57;;;;;;;0.00;0.00;;;;;;;;;;1727887;28;20208;-84
2023/08/21 03:40:48;;;;;;;0.00;0.00;;;;;;;;;;1728994;28;20224;-82
2023/08/21 03:41:40;;;;;;;0.00;0.00;;;;;;;;;;1727161;28;20237;-82
2023/08/21 03:42:31;;;;;;;0.00;0.00;;;;;;;;;;1728544;28;20656;-82
2023/08/21 03:43:25;;;;;;;0.00;0.00;;;;;;;;;;1730196;28;20211;-82
2023/08/21 03:44:16;;;;;;;0.00;0.00;;;;;;;;;;1728148;28;20254;-82
2023/08/21 03:45:08;;;;;;;0.00;0.00;;;;;;;;;;1727874;28;20232;-82
2023/08/21 03:45:59;;;;;;;0.00;0.00;;;;;;;;;;1729921;28;20231;-83
2023/08/21 03:46:50;;;;;;;0.00;0.00;;;;;;;;;;1728313;28;20211;-82
2023/08/21 03:47:42;;;;;;;0.00;0.00;;;;;;;;;;1730262;28;20314;-82
2023/08/21 03:48:34;;;;;;;0.00;0.00;;;;;;;;;;1729926;28;20279;-82
2023/08/21 03:49:25;;;;;;;0.00;0.00;;;;;;;;;;1727342;28;20311;-82
2023/08/21 03:50:17;;;;;;;0.00;0.00;;;;;;;;;;1727135;28;20203;-82
2023/08/21 03:51:08;;;;;;;0.00;0.00;;;;;;;;;;1730813;28;20263;-82
2023/08/21 03:52:00;;;;;;;0.00;0.00;;;;;;;;;;1728684;28;20228;-82
2023/08/21 03:52:51;;;;;;;0.00;0.00;;;;;;;;;;1728437;28;20238;-82
2023/08/21 03:53:42;;;;;;;0.00;0.00;;;;;;;;;;1728846;28;20223;-83
2023/08/21 03:54:34;;;;;;;0.00;0.00;;;;;;;;;;1728076;28;20196;-83
2023/08/21 03:55:25;;;;;;;0.00;0.00;;;;;;;;;;1726259;28;20250;-83
2023/08/21 03:56:18;;;;;;;0.00;0.00;;;;;;;;;;1727235;28;20599;-82
2023/08/21 03:57:09;;;;;;;0.00;0.00;;;;;;;;;;1729381;28;20265;-82
2023/08/21 03:58:01;;;;;;;0.00;0.00;;;;;;;;;;1732734;28;20199;-83
2023/08/21 03:58:53;;;;;;;0.00;0.00;;;;;;;;;;1728315;28;20214;-83
2023/08/21 03:59:45;;;;;;;0.00;0.00;;;;;;;;;;1728654;28;20298;-83
2023/08/21 04:00:37;;;;;;;0.00;0.00;;;;;;;;;;1724459;28;20685;-83
2023/08/21 04:01:29;;;;;;;0.00;0.00;;;;;;;;;;1730748;28;20207;-83
2023/08/21 04:02:20;;;;;;;0.00;0.00;;;;;;;;;;1727905;28;20600;-82
2023/08/21 04:03:12;;;;;;;0.00;0.00;;;;;;;;;;1731920;28;20239;-82
2023/08/21 04:04:03;;;;;;;0.00;0.00;;;;;;;;;;1727567;28;20232;-82
2023/08/21 04:04:54;;;;;;;0.00;0.00;;;;;;;;;;1727026;28;20200;-82
2023/08/21 04:05:46;;;;;;;0.00;0.00;;;;;;;;;;1725888;28;20240;-82
2023/08/21 04:06:37;;;;;;;0.00;0.00;;;;;;;;;;1727479;28;20520;-82
2023/08/21 04:07:28;;;;;;;0.00;0.00;;;;;;;;;;1730450;28;20200;-82
2023/08/21 04:08:20;;;;;;;0.00;0.00;;;;;;;;;;1730469;28;20216;-82
2023/08/21 04:09:11;;;;;;;0.00;0.00;;;;;;;;;;1727376;28;20656;-82
2023/08/21 04:10:06;;;;;;;0.00;0.00;;;;;;;;;;1728025;28;20201;-82
2023/08/21 04:10:59;;;;;;;0.00;0.00;;;;;;;;;;1726107;28;20362;-83
2023/08/21 04:11:51;;;;;;;0.00;0.00;;;;;;;;;;1727607;28;20640;-82
2023/08/21 04:12:42;;;;;;;0.00;0.00;;;;;;;;;;1731629;28;20239;-83
2023/08/21 04:13:34;;;;;;;0.00;0.00;;;;;;;;;;1730639;28;20258;-82
2023/08/21 04:14:27;;;;;;;0.00;0.00;;;;;;;;;;1728820;28;21198;-82
2023/08/21 04:15:18;;;;;;;0.00;0.00;;;;;;;;;;1727411;28;20296;-82
2023/08/21 04:16:10;;;;;;;0.00;0.00;;;;;;;;;;1730834;28;20207;-82
2023/08/21 04:17:02;;;;;;;0.00;0.00;;;;;;;;;;1727182;28;20545;-82
2023/08/21 04:17:53;;;;;;;0.00;0.00;;;;;;;;;;1727601;28;20234;-82
2023/08/21 04:18:44;;;;;;;0.00;0.00;;;;;;;;;;1729227;28;20511;-82
2023/08/21 04:19:36;;;;;;;0.00;0.00;;;;;;;;;;1728743;28;20205;-82
2023/08/21 04:20:27;;;;;;;0.00;0.00;;;;;;;;;;1730333;28;20222;-82
2023/08/21 04:21:18;;;;;;;0.00;0.00;;;;;;;;;;1732163;28;20242;-82
2023/08/21 04:22:11;;;;;;;0.00;0.00;;;;;;;;;;1727536;28;20285;-82
2023/08/21 04:23:02;;;;;;;0.00;0.00;;;;;;;;;;1727371;28;20240;-82
2023/08/21 04:23:54;;;;;;;0.00;0.00;;;;;;;;;;1727079;28;20204;-82
2023/08/21 04:24:45;;;;;;;0.00;0.00;;;;;;;;;;1727257;28;20200;-82
2023/08/21 04:25:36;;;;;;;0.00;0.00;;;;;;;;;;1726818;28;20633;-82
2023/08/21 04:26:28;;;;;;;0.00;0.00;;;;;;;;;;1723084;28;20196;-82
2023/08/21 04:27:19;;;;;;;0.00;0.00;;;;;;;;;;1729808;28;20641;-82
2023/08/21 04:28:10;;;;;;;0.00;0.00;;;;;;;;;;1731580;28;20226;-82
2023/08/21 04:29:02;;;;;;;0.00;0.00;;;;;;;;;;1727224;28;20204;-82
2023/08/21 04:29:55;;;;;;;0.00;0.00;;;;;;;;;;1726836;28;20745;-82
2023/08/21 04:30:46;;;;;;;0.00;0.00;;;;;;;;;;1727873;28;20385;-82
2023/08/21 04:31:38;;;;;;;0.00;0.00;;;;;;;;;;1729685;28;20272;-81
2023/08/21 04:32:29;;;;;;;0.00;0.00;;;;;;;;;;1728278;28;20237;-81
2023/08/21 04:33:21;;;;;;;0.00;0.00;;;;;;;;;;1727049;28;20565;-81
2023/08/21 04:34:12;;;;;;;0.00;0.00;;;;;;;;;;1730958;28;20581;-81
2023/08/21 04:35:05;;;;;;;0.00;0.00;;;;;;;;;;1727954;28;20591;-83
2023/08/21 04:35:56;;;;;;;0.00;0.00;;;;;;;;;;1724973;28;20619;-81
2023/08/21 04:36:49;;;;;;;0.00;0.00;;;;;;;;;;1726648;28;20201;-81
2023/08/21 04:37:45;;;;;;;0.00;0.00;;;;;;;;;;1730154;28;20629;-82
2023/08/21 04:38:37;;;;;;;0.00;0.00;;;;;;;;;;1729803;28;20205;-81
2023/08/21 04:39:28;;;;;;;0.00;0.00;;;;;;;;;;1727220;28;20204;-82
2023/08/21 04:40:22;;;;;;;0.00;0.00;;;;;;;;;;1726240;28;20204;-82
2023/08/21 04:41:13;;;;;;;0.00;0.00;;;;;;;;;;1727174;28;20554;-82
2023/08/21 04:42:04;;;;;;;0.00;0.00;;;;;;;;;;1728200;28;20210;-81
2023/08/21 04:42:56;;;;;;;0.00;0.00;;;;;;;;;;1727506;28;20291;-81
2023/08/21 04:43:47;;;;;;;0.00;0.00;;;;;;;;;;1728697;28;20207;-81
2023/08/21 04:44:38;;;;;;;0.00;0.00;;;;;;;;;;1726473;28;20262;-81
2023/08/21 04:45:32;;;;;;;0.00;0.00;;;;;;;;;;1725831;28;20207;-82
2023/08/21 04:46:23;;;;;;;0.00;0.00;;;;;;;;;;1730889;28;20214;-81
2023/08/21 04:47:25;;;;;;;0.00;0.00;;;;;;;;;;1726540;28;20196;-81
2023/08/21 04:48:17;;;;;;;0.00;0.00;;;;;;;;;;1726639;28;20201;-81
2023/08/21 04:49:09;;;;;;;0.00;0.00;;;;;;;;;;1728976;28;20652;-81
2023/08/21 04:50:03;;;;;;;0.00;0.00;;;;;;;;;;1727818;28;20531;-81
2023/08/21 04:50:55;;;;;;;0.00;0.00;;;;;;;;;;1729427;28;20293;-82
2023/08/21 04:51:47;;;;;;;0.00;0.00;;;;;;;;;;1730025;28;20239;-80
2023/08/21 04:52:38;;;;;;;0.00;0.00;;;;;;;;;;1728468;28;20243;-81
2023/08/21 04:53:29;;;;;;;0.00;0.00;;;;;;;;;;1728508;28;20626;-81
2023/08/21 04:54:21;;;;;;;0.00;0.00;;;;;;;;;;1726898;28;20223;-81
2023/08/21 04:55:12;;;;;;;0.00;0.00;;;;;;;;;;1728041;28;20303;-80
2023/08/21 04:56:03;;;;;;;0.00;0.00;;;;;;;;;;1727575;28;20912;-79
2023/08/21 04:56:55;;;;;;;0.00;0.00;;;;;;;;;;1729827;28;20218;-80
2023/08/21 04:57:46;;;;;;;0.00;0.00;;;;;;;;;;1727691;28;20693;-79
2023/08/21 04:58:38;;;;;;;0.00;0.00;;;;;;;;;;1728018;28;20284;-81
2023/08/21 04:59:29;;;;;;;0.00;0.00;;;;;;;;;;1728279;28;20213;-81
2023/08/21 05:00:21;;;;;;;0.00;0.00;;;;;;;;;;1726994;28;20212;-81
2023/08/21 05:01:14;;;;;;;0.00;0.00;;;;;;;;;;1732000;28;20227;-82
2023/08/21 05:02:05;;;;;;;0.00;0.00;;;;;;;;;;1728997;28;20207;-83
2023/08/21 05:02:57;;;;;;;0.00;0.00;;;;;;;;;;1732191;28;20213;-82
2023/08/21 05:03:48;;;;;;;0.00;0.00;;;;;;;;;;1728755;28;20242;-82
2023/08/21 05:04:39;;;;;;;0.00;0.00;;;;;;;;;;1728680;28;20422;-82
2023/08/21 05:05:31;;;;;;;0.00;0.00;;;;;;;;;;1728067;28;20215;-82
2023/08/21 05:06:23;;;;;;;0.00;0.00;;;;;;;;;;1726782;28;20205;-81
2023/08/21 05:07:14;;;;;;;0.00;0.00;;;;;;;;;;1727136;28;20245;-82
2023/08/21 05:08:07;;;;;;;0.00;0.00;;;;;;;;;;1727328;28;20745;-82
2023/08/21 05:08:58;;;;;;;0.00;0.00;;;;;;;;;;1727146;28;20614;-82
2023/08/21 05:09:49;;;;;;;0.00;0.00;;;;;;;;;;1727107;28;20343;-81
2023/08/21 05:10:41;;;;;;;0.00;0.00;;;;;;;;;;1726413;28;20319;-82
2023/08/21 05:11:32;;;;;;;0.00;0.00;;;;;;;;;;1728126;28;20601;-82